Time;durP1;ratioP1;P1;durP2;ratioP2;P2;SDS_P1;SDS_P2;PMS_P1;PMS_P2;Temp;Humidity;BMP_temperature;BMP_pressure;BME280_temperature;BME280_humidity;BME280_pressure;Samples;Min_cycle;Max_cycle;Signal;HPM_P1;HPM_P2
2023/12/26 00:01:18;;;;;;;0.40;0.10;;;10.50;99.90;;;;;;5042814;28;20238;-71
2023/12/26 00:03:46;;;;;;;0.10;0.10;;;10.50;99.90;;;;;;5043815;28;20206;-71
2023/12/26 00:06:20;;;;;;;0.10;0.10;;;10.60;99.90;;;;;;5041161;28;20708;-71
2023/12/26 00:08:48;;;;;;;0.10;0.10;;;10.60;99.90;;;;;;5043036;28;20214;-71
2023/12/26 00:11:16;;;;;;;2.70;0.10;;;10.60;99.90;;;;;;5032615;28;20711;-71
2023/12/26 00:13:45;;;;;;;0.55;0.10;;;10.60;99.90;;;;;;5033126;28;20230;-71
2023/12/26 00:16:13;;;;;;;0.20;0.10;;;10.60;99.90;;;;;;5032209;28;20238;-71
2023/12/26 00:18:41;;;;;;;0.10;0.10;;;10.60;99.90;;;;;;5032577;28;20210;-71
2023/12/26 00:21:09;;;;;;;0.10;0.10;;;10.60;99.90;;;;;;5045063;28;20252;-71
2023/12/26 00:23:37;;;;;;;0.63;0.15;;;10.60;99.90;;;;;;5037583;28;20216;-71
2023/12/26 00:26:05;;;;;;;0.10;0.10;;;10.60;99.90;;;;;;5039111;28;20223;-71
2023/12/26 00:28:33;;;;;;;1.55;0.20;;;10.60;99.90;;;;;;5032234;28;20558;-71
2023/12/26 00:31:02;;;;;;;0.10;0.10;;;10.60;99.90;;;;;;5044877;28;20313;-71
2023/12/26 00:33:30;;;;;;;0.00;0.00;;;10.60;99.90;;;;;;5041763;28;20234;-71
2023/12/26 00:35:59;;;;;;;0.10;0.10;;;10.60;99.90;;;;;;5043516;28;20202;-71
2023/12/26 00:38:27;;;;;;;0.50;0.10;;;10.60;99.90;;;;;;5036693;28;20206;-71
2023/12/26 00:40:55;;;;;;;2.42;0.28;;;10.50;99.90;;;;;;5043852;28;20237;-71
2023/12/26 00:43:23;;;;;;;0.20;0.10;;;10.60;99.90;;;;;;5032825;28;20202;-71
2023/12/26 00:45:51;;;;;;;0.10;0.10;;;10.60;99.90;;;;;;5038528;28;20290;-71
2023/12/26 00:48:20;;;;;;;0.32;0.13;;;10.60;99.90;;;;;;5040226;28;20676;-71
2023/12/26 00:50:48;;;;;;;0.20;0.10;;;10.60;99.90;;;;;;5036596;28;20221;-71
2023/12/26 00:53:16;;;;;;;0.10;0.10;;;10.50;99.90;;;;;;5047397;28;20212;-71
2023/12/26 00:55:44;;;;;;;0.10;0.10;;;10.50;99.90;;;;;;5041781;28;20298;-71
2023/12/26 00:58:12;;;;;;;0.00;0.00;;;10.50;99.90;;;;;;5031973;28;20242;-71
2023/12/26 01:00:40;;;;;;;0.93;0.10;;;10.50;99.90;;;;;;5031661;28;20269;-71
2023/12/26 01:03:09;;;;;;;0.10;0.10;;;10.50;99.90;;;;;;5044313;28;20300;-71
2023/12/26 01:05:38;;;;;;;0.50;0.10;;;10.50;99.90;;;;;;5031432;28;20203;-71
2023/12/26 01:08:08;;;;;;;0.10;0.10;;;10.50;99.90;;;;;;5040022;28;20210;-71
2023/12/26 01:10:36;;;;;;;0.10;0.10;;;10.50;99.90;;;;;;5036036;28;20226;-71
2023/12/26 01:13:05;;;;;;;0.95;0.10;;;10.50;99.90;;;;;;5031820;28;20671;-71
2023/12/26 01:15:33;;;;;;;1.10;0.10;;;10.50;99.90;;;;;;5043030;28;20209;-71
2023/12/26 01:18:01;;;;;;;0.22;0.17;;;10.50;99.90;;;;;;5031607;28;20294;-71
2023/12/26 01:20:29;;;;;;;0.10;0.10;;;10.50;99.90;;;;;;5031499;28;20218;-71
2023/12/26 01:22:58;;;;;;;0.00;0.00;;;10.50;99.90;;;;;;5043437;28;20202;-71
2023/12/26 01:25:26;;;;;;;0.10;0.10;;;10.40;99.90;;;;;;5035933;28;20206;-71
2023/12/26 01:27:54;;;;;;;1.17;0.20;;;10.40;99.90;;;;;;5044648;28;20616;-71
2023/12/26 01:30:22;;;;;;;0.13;0.13;;;10.40;99.90;;;;;;5036274;28;20262;-71
2023/12/26 01:32:50;;;;;;;0.00;0.00;;;10.40;99.90;;;;;;5044819;28;20233;-71
2023/12/26 01:35:18;;;;;;;0.88;0.10;;;10.40;99.90;;;;;;5032526;28;20233;-71
2023/12/26 01:37:46;;;;;;;0.35;0.15;;;10.40;99.90;;;;;;5031146;28;20238;-71
2023/12/26 01:40:16;;;;;;;0.10;0.10;;;10.40;99.90;;;;;;5031147;28;20236;-71
2023/12/26 01:42:46;;;;;;;0.10;0.10;;;10.40;99.90;;;;;;5041158;28;20649;-71
2023/12/26 01:45:14;;;;;;;0.00;0.00;;;10.40;99.90;;;;;;5034047;28;20268;-71
2023/12/26 01:47:43;;;;;;;0.10;0.10;;;10.50;99.90;;;;;;5041914;28;20317;-71
2023/12/26 01:50:11;;;;;;;0.05;0.05;;;10.50;99.90;;;;;;5031164;28;20284;-70
2023/12/26 01:52:39;;;;;;;0.88;0.13;;;10.50;99.90;;;;;;5030929;28;20289;-70
2023/12/26 01:55:08;;;;;;;0.13;0.13;;;10.50;99.90;;;;;;5031370;28;20211;-71
2023/12/26 01:57:39;;;;;;;0.10;0.10;;;10.50;99.90;;;;;;5034570;28;20730;-71
2023/12/26 02:00:08;;;;;;;0.63;0.10;;;10.50;99.90;;;;;;5039497;28;20218;-71
2023/12/26 02:02:36;;;;;;;4.20;0.30;;;10.50;99.90;;;;;;5039215;28;20573;-71
2023/12/26 02:05:04;;;;;;;0.75;0.40;;;10.50;99.90;;;;;;5031018;28;20226;-71
2023/12/26 02:07:32;;;;;;;1.05;0.20;;;10.50;99.90;;;;;;5030098;28;20219;-71
2023/12/26 02:10:03;;;;;;;0.20;0.20;;;10.50;99.90;;;;;;5038496;28;20575;-71
2023/12/26 02:12:30;;;;;;;1.45;0.40;;;10.60;99.90;;;;;;5035827;28;20210;-71
2023/12/26 02:15:00;;;;;;;2.15;0.32;;;10.50;99.90;;;;;;5034001;28;20233;-71
2023/12/26 02:17:29;;;;;;;0.50;0.32;;;10.50;99.90;;;;;;5036296;28;20206;-71
2023/12/26 02:19:57;;;;;;;2.95;0.45;;;10.50;99.90;;;;;;5050565;28;20698;-71
2023/12/26 02:22:25;;;;;;;0.50;0.28;;;10.50;99.90;;;;;;5050668;28;20213;-71
2023/12/26 02:24:54;;;;;;;0.85;0.40;;;10.50;99.90;;;;;;5050626;28;20297;-71
2023/12/26 02:27:24;;;;;;;3.10;0.50;;;10.50;99.90;;;;;;5049276;28;20300;-71
2023/12/26 02:29:53;;;;;;;3.33;0.57;;;10.50;99.90;;;;;;5050937;28;20210;-71
2023/12/26 02:32:23;;;;;;;3.30;0.60;;;10.50;99.90;;;;;;5044126;28;20690;-71
2023/12/26 02:34:54;;;;;;;1.38;0.40;;;10.50;99.90;;;;;;5050602;28;20202;-71
2023/12/26 02:37:22;;;;;;;1.95;0.50;;;10.40;99.90;;;;;;5041898;28;20699;-71
2023/12/26 02:39:51;;;;;;;0.95;0.43;;;10.40;99.90;;;;;;5044648;28;20245;-71
2023/12/26 02:42:20;;;;;;;2.97;0.80;;;10.40;99.90;;;;;;5039731;28;20551;-71
2023/12/26 02:44:48;;;;;;;4.45;0.80;;;10.50;99.90;;;;;;5050125;28;20218;-71
2023/12/26 02:47:16;;;;;;;2.50;0.93;;;10.50;99.90;;;;;;5049915;28;20256;-71
2023/12/26 02:49:44;;;;;;;2.17;0.57;;;10.40;99.90;;;;;;5050578;28;20267;-71
2023/12/26 02:52:12;;;;;;;5.15;0.77;;;10.50;99.90;;;;;;5050041;28;20699;-71
2023/12/26 02:54:40;;;;;;;6.75;0.70;;;10.40;99.90;;;;;;5050275;28;20213;-71
2023/12/26 02:57:08;;;;;;;4.78;1.10;;;10.40;99.90;;;;;;5052364;28;20292;-71
2023/12/26 02:59:37;;;;;;;4.30;0.90;;;10.40;99.90;;;;;;5046359;28;20285;-71
2023/12/26 03:02:05;;;;;;;2.10;0.63;;;10.40;99.90;;;;;;5054053;28;20233;-71
2023/12/26 03:04:33;;;;;;;3.75;0.70;;;10.40;99.90;;;;;;5053696;28;20653;-71
2023/12/26 03:07:01;;;;;;;3.92;1.10;;;10.40;99.90;;;;;;5045038;28;20238;-71
2023/12/26 03:09:28;;;;;;;4.70;1.02;;;10.40;99.90;;;;;;5053441;28;20263;-71
2023/12/26 03:11:56;;;;;;;7.28;1.15;;;10.40;99.90;;;;;;5053953;22;20288;-59
2023/12/26 03:14:24;;;;;;;4.57;1.17;;;10.50;99.90;;;;;;5025889;28;20231;-59
2023/12/26 03:16:53;;;;;;;1.58;0.95;;;10.40;99.90;;;;;;5033872;28;20297;-59
2023/12/26 03:19:21;;;;;;;7.70;1.20;;;10.40;99.90;;;;;;5033916;28;20264;-58
2023/12/26 03:21:50;;;;;;;5.35;1.25;;;10.40;99.90;;;;;;5034046;28;20660;-58
2023/12/26 03:24:18;;;;;;;5.72;0.95;;;10.40;99.90;;;;;;5024452;28;20277;-59
2023/12/26 03:26:46;;;;;;;5.00;1.10;;;10.40;99.90;;;;;;5026900;28;20349;-60
2023/12/26 03:29:14;;;;;;;5.53;1.50;;;10.40;99.90;;;;;;5033916;28;20235;-59
2023/12/26 03:31:45;;;;;;;5.93;1.00;;;10.30;99.90;;;;;;5030999;28;20301;-59
2023/12/26 03:34:14;;;;;;;3.72;0.88;;;10.30;99.90;;;;;;5022513;28;20234;-58
2023/12/26 03:36:44;;;;;;;4.72;1.00;;;10.30;99.90;;;;;;5033280;28;20229;-59
2023/12/26 03:39:12;;;;;;;3.70;1.10;;;10.30;99.90;;;;;;5033401;28;20213;-60
2023/12/26 03:41:40;;;;;;;3.72;1.45;;;10.30;99.90;;;;;;5030738;28;20215;-59
2023/12/26 03:44:08;;;;;;;4.85;1.13;;;10.30;99.90;;;;;;5048847;22;20226;-59
2023/12/26 03:46:36;;;;;;;3.78;1.00;;;10.30;99.90;;;;;;5033201;28;20207;-59
2023/12/26 03:49:04;;;;;;;8.43;1.30;;;10.40;99.90;;;;;;5018299;28;20219;-58
2023/12/26 03:51:33;;;;;;;4.30;1.25;;;10.40;99.90;;;;;;5022270;28;20231;-57
2023/12/26 03:54:01;;;;;;;5.82;1.35;;;10.40;99.90;;;;;;5020895;28;20215;-57
2023/12/26 03:56:30;;;;;;;5.78;1.10;;;10.40;99.90;;;;;;5013612;28;20215;-58
2023/12/26 03:58:58;;;;;;;5.90;0.90;;;10.40;99.90;;;;;;5028192;28;20648;-58
2023/12/26 04:01:26;;;;;;;2.88;1.20;;;10.40;99.90;;;;;;5033238;28;20242;-59
2023/12/26 04:03:54;;;;;;;5.20;1.08;;;10.40;99.90;;;;;;5033233;28;20215;-59
2023/12/26 04:06:22;;;;;;;8.68;1.48;;;10.40;99.90;;;;;;5032616;28;20237;-58
2023/12/26 04:08:51;;;;;;;10.00;1.50;;;10.40;99.90;;;;;;5033334;28;20245;-58
2023/12/26 04:11:18;;;;;;;5.30;1.40;;;10.40;99.90;;;;;;5033060;28;20211;-58
2023/12/26 04:13:46;;;;;;;2.63;1.02;;;10.40;99.90;;;;;;5033384;28;20302;-57
2023/12/26 04:16:14;;;;;;;7.93;1.35;;;10.30;99.90;;;;;;5032180;28;20707;-58
2023/12/26 04:18:42;;;;;;;5.70;1.00;;;10.30;99.90;;;;;;5033408;28;20206;-59
2023/12/26 04:21:10;;;;;;;6.32;1.10;;;10.30;99.90;;;;;;5024267;28;20302;-58
2023/12/26 04:23:38;;;;;;;5.38;1.15;;;10.30;99.90;;;;;;5032928;28;20209;-59
2023/12/26 04:26:07;;;;;;;6.63;1.30;;;10.30;99.90;;;;;;5032447;28;20310;-59
2023/12/26 04:28:35;;;;;;;8.52;1.50;;;10.30;99.90;;;;;;5023930;28;20765;-59
2023/12/26 04:31:04;;;;;;;7.30;1.38;;;10.30;99.90;;;;;;5024916;28;20246;-57
2023/12/26 04:33:32;;;;;;;4.32;1.20;;;10.30;99.90;;;;;;5018336;28;20261;-58
2023/12/26 04:36:00;;;;;;;7.22;1.65;;;10.30;99.90;;;;;;5032396;28;20226;-58
2023/12/26 04:38:28;;;;;;;8.63;1.30;;;10.30;99.90;;;;;;5032507;28;20297;-59
2023/12/26 04:40:56;;;;;;;5.95;1.17;;;10.30;99.90;;;;;;5026817;28;20269;-58
2023/12/26 04:43:25;;;;;;;13.82;2.13;;;10.30;99.90;;;;;;5014669;28;20257;-59
2023/12/26 04:45:53;;;;;;;7.78;1.42;;;10.30;99.90;;;;;;5032317;28;20325;-59
2023/12/26 04:48:21;;;;;;;6.03;1.42;;;10.30;99.90;;;;;;5032301;28;20280;-57
2023/12/26 04:50:50;;;;;;;7.30;1.40;;;10.30;99.90;;;;;;5032406;28;20206;-59
2023/12/26 04:53:18;;;;;;;11.68;2.30;;;10.30;99.90;;;;;;5032238;28;20206;-59
2023/12/26 04:55:46;;;;;;;11.40;2.03;;;10.30;99.90;;;;;;5031837;28;20877;-58
2023/12/26 04:58:13;;;;;;;6.80;1.23;;;10.30;99.90;;;;;;5032467;28;20264;-57
2023/12/26 05:00:43;;;;;;;10.68;1.30;;;10.30;99.90;;;;;;5024263;28;20293;-58
2023/12/26 05:03:11;;;;;;;8.15;1.38;;;10.30;99.90;;;;;;5032483;28;20210;-58
2023/12/26 05:05:39;;;;;;;9.40;1.50;;;10.30;99.90;;;;;;5031672;28;20250;-58
2023/12/26 05:08:07;;;;;;;10.45;1.98;;;10.40;99.90;;;;;;5032041;28;20206;-58
2023/12/26 05:10:35;;;;;;;9.40;1.48;;;10.30;99.90;;;;;;5023801;28;20241;-58
2023/12/26 05:13:03;;;;;;;3.30;0.90;;;10.30;99.90;;;;;;5032157;28;20206;-58
2023/12/26 05:15:31;;;;;;;8.20;1.73;;;10.30;99.90;;;;;;5031730;28;20250;-59
2023/12/26 05:18:03;;;;;;;9.80;1.58;;;10.30;99.90;;;;;;5028796;28;20247;-58
2023/12/26 05:20:31;;;;;;;7.97;1.40;;;10.30;99.90;;;;;;5024264;28;20206;-58
2023/12/26 05:22:59;;;;;;;5.35;1.27;;;10.30;99.90;;;;;;5031533;28;20210;-59
2023/12/26 05:25:27;;;;;;;4.93;1.15;;;10.30;99.90;;;;;;5031795;28;20247;-58
2023/12/26 05:27:55;;;;;;;9.35;1.65;;;10.30;99.90;;;;;;5031595;28;20717;-57
2023/12/26 05:30:23;;;;;;;8.88;1.48;;;10.20;99.90;;;;;;5031442;28;20230;-58
2023/12/26 05:32:51;;;;;;;6.47;1.67;;;10.20;99.90;;;;;;5020580;28;20269;-57
2023/12/26 05:35:20;;;;;;;8.75;1.42;;;10.20;99.90;;;;;;5028452;28;20699;-59
2023/12/26 05:37:48;;;;;;;8.02;1.17;;;10.20;99.90;;;;;;5031623;28;20260;-58
2023/12/26 05:40:16;;;;;;;8.20;1.15;;;10.20;99.90;;;;;;5031901;28;20237;-58
2023/12/26 05:42:45;;;;;;;4.57;1.30;;;10.20;99.90;;;;;;5023910;28;20207;-58
2023/12/26 05:45:12;;;;;;;7.25;1.50;;;10.20;99.90;;;;;;5031531;28;20242;-58
2023/12/26 05:47:40;;;;;;;7.75;1.40;;;10.10;99.90;;;;;;5030942;28;20725;-58
2023/12/26 05:50:10;;;;;;;4.80;1.42;;;10.10;99.90;;;;;;5031583;28;20218;-57
2023/12/26 05:52:39;;;;;;;7.25;1.05;;;10.10;99.90;;;;;;5030413;28;20333;-57
2023/12/26 05:55:08;;;;;;;7.05;1.10;;;10.10;99.90;;;;;;5031371;28;20265;-58
2023/12/26 05:57:36;;;;;;;6.30;1.33;;;10.10;99.90;;;;;;5031142;28;20238;-59
2023/12/26 06:00:05;;;;;;;4.30;1.10;;;10.10;99.90;;;;;;5027094;28;20290;-58
2023/12/26 06:02:33;;;;;;;5.50;0.98;;;10.00;99.90;;;;;;5029301;28;20215;-59
2023/12/26 06:05:01;;;;;;;3.65;0.98;;;10.00;99.90;;;;;;5025765;28;20231;-58
2023/12/26 06:07:28;;;;;;;7.32;1.23;;;10.00;99.90;;;;;;5028778;28;20628;-59
2023/12/26 06:09:58;;;;;;;7.47;1.15;;;10.00;99.90;;;;;;5031551;28;20257;-60
2023/12/26 06:12:26;;;;;;;6.88;1.27;;;10.00;99.90;;;;;;5030910;28;20234;-60
2023/12/26 06:14:54;;;;;;;5.18;1.30;;;10.00;99.90;;;;;;5031199;28;20230;-60
2023/12/26 06:17:22;;;;;;;4.78;1.63;;;10.00;99.90;;;;;;5030891;28;20202;-60
2023/12/26 06:19:50;;;;;;;10.63;1.30;;;10.00;99.90;;;;;;5031342;28;20218;-60
2023/12/26 06:22:18;;;;;;;8.27;1.50;;;10.00;99.90;;;;;;5031026;28;20290;-60
2023/12/26 06:24:46;;;;;;;5.07;1.08;;;10.00;99.90;;;;;;5023210;28;20226;-60
2023/12/26 06:27:15;;;;;;;5.45;1.17;;;9.90;99.90;;;;;;5030880;28;20659;-59
2023/12/26 06:29:43;;;;;;;4.00;0.98;;;9.90;99.90;;;;;;5031545;28;20325;-60
2023/12/26 06:32:11;;;;;;;9.65;1.25;;;9.90;99.90;;;;;;5028662;28;20217;-60
2023/12/26 06:34:39;;;;;;;5.38;1.30;;;9.90;99.90;;;;;;5026713;28;20791;-60
2023/12/26 06:37:07;;;;;;;5.20;1.25;;;9.90;99.90;;;;;;5034806;28;20686;-60
2023/12/26 06:39:35;;;;;;;7.85;1.33;;;9.90;99.90;;;;;;5034576;28;20676;-60
2023/12/26 06:42:03;;;;;;;7.90;1.33;;;10.00;99.90;;;;;;5034759;28;20260;-60
2023/12/26 06:44:33;;;;;;;4.93;1.45;;;10.00;99.90;;;;;;5034824;28;20233;-60
2023/12/26 06:47:01;;;;;;;10.95;1.58;;;10.00;99.90;;;;;;5034787;28;20290;-60
2023/12/26 06:49:29;;;;;;;7.05;1.13;;;10.00;99.90;;;;;;5034497;28;20768;-60
2023/12/26 06:51:56;;;;;;;6.28;1.30;;;10.00;99.90;;;;;;5034675;28;20587;-59
2023/12/26 06:54:24;;;;;;;8.80;1.02;;;10.00;99.90;;;;;;5034390;28;20246;-59
2023/12/26 06:56:52;;;;;;;4.88;1.25;;;10.00;99.90;;;;;;5034194;28;20268;-60
2023/12/26 06:59:20;;;;;;;4.10;1.38;;;10.00;99.90;;;;;;5034664;28;20194;-64
2023/12/26 07:01:49;;;;;;;6.07;1.23;;;10.00;99.90;;;;;;5018047;28;20298;-64
2023/12/26 07:04:17;;;;;;;7.78;1.27;;;10.10;99.90;;;;;;5027396;28;20218;-64
2023/12/26 07:06:46;;;;;;;3.45;1.27;;;10.10;99.90;;;;;;5024866;28;20290;-64
2023/12/26 07:09:14;;;;;;;6.13;1.17;;;10.10;99.90;;;;;;5019942;28;20664;-64
2023/12/26 07:11:42;;;;;;;8.93;1.10;;;10.10;99.90;;;;;;5019736;28;20215;-64
2023/12/26 07:14:10;;;;;;;6.43;1.15;;;10.10;99.90;;;;;;5025877;28;20209;-64
2023/12/26 07:16:37;;;;;;;8.80;1.30;;;10.10;99.90;;;;;;5029831;28;20202;-64
2023/12/26 07:19:06;;;;;;;3.33;0.73;;;10.20;99.90;;;;;;5025763;28;20290;-64
2023/12/26 07:21:35;;;;;;;2.28;0.63;;;10.10;99.90;;;;;;5028719;28;20264;-64
2023/12/26 07:24:03;;;;;;;9.48;1.20;;;10.10;99.90;;;;;;5029818;28;20293;-64
2023/12/26 07:26:30;;;;;;;3.80;1.13;;;10.10;99.90;;;;;;5029225;28;20207;-63
2023/12/26 07:28:58;;;;;;;6.28;0.80;;;10.20;99.90;;;;;;5027064;28;20238;-64
2023/12/26 07:31:26;;;;;;;7.47;1.00;;;10.20;99.90;;;;;;5016022;28;20227;-64
2023/12/26 07:33:54;;;;;;;7.20;1.23;;;10.20;99.90;;;;;;5020397;28;20702;-64
2023/12/26 07:36:23;;;;;;;5.35;0.80;;;10.20;99.90;;;;;;5033384;28;20213;-64
2023/12/26 07:38:51;;;;;;;5.47;1.00;;;10.20;99.90;;;;;;5026279;28;20202;-64
2023/12/26 07:41:19;;;;;;;4.75;1.20;;;10.20;99.90;;;;;;5032941;28;20433;-63
2023/12/26 07:43:47;;;;;;;6.38;1.40;;;10.20;99.90;;;;;;5033879;28;20207;-63
2023/12/26 07:46:15;;;;;;;4.78;0.63;;;10.20;99.90;;;;;;5033437;28;20240;-64
2023/12/26 07:48:43;;;;;;;3.30;0.80;;;10.30;99.90;;;;;;5033376;28;20258;-64
2023/12/26 07:51:11;;;;;;;4.57;0.70;;;10.20;99.90;;;;;;5033844;28;20857;-63
2023/12/26 07:53:41;;;;;;;4.63;1.00;;;10.20;99.90;;;;;;5031566;28;20655;-63
2023/12/26 07:56:09;;;;;;;7.53;1.20;;;10.20;99.90;;;;;;5022414;28;20225;-64
2023/12/26 07:58:38;;;;;;;4.40;1.27;;;10.30;99.90;;;;;;5019275;28;20675;-64
2023/12/26 08:01:06;;;;;;;7.22;1.20;;;10.30;99.90;;;;;;5017932;28;20730;-64
2023/12/26 08:03:33;;;;;;;3.00;0.90;;;10.20;99.90;;;;;;5023719;28;20619;-64
2023/12/26 08:06:01;;;;;;;6.07;1.20;;;10.30;99.90;;;;;;5028843;28;20222;-64
2023/12/26 08:08:30;;;;;;;1.60;1.10;;;10.20;99.90;;;;;;5033155;28;20265;-64
2023/12/26 08:10:59;;;;;;;5.55;1.00;;;10.20;99.90;;;;;;5027238;28;20661;-64
2023/12/26 08:13:27;;;;;;;3.47;0.88;;;10.30;99.90;;;;;;5033033;28;20199;-64
2023/12/26 08:15:55;;;;;;;4.85;0.95;;;10.30;99.90;;;;;;5027587;28;20219;-63
2023/12/26 08:18:23;;;;;;;3.50;0.95;;;10.30;99.90;;;;;;5031691;28;20245;-63
2023/12/26 08:20:51;;;;;;;1.50;0.70;;;10.30;99.90;;;;;;5022931;28;20202;-64
2023/12/26 08:23:19;;;;;;;1.25;0.77;;;10.20;99.90;;;;;;5025780;28;20211;-64
2023/12/26 08:25:47;;;;;;;2.03;0.60;;;10.30;99.90;;;;;;5028284;28;20335;-63
2023/12/26 08:28:16;;;;;;;2.22;0.75;;;10.30;99.90;;;;;;5017533;28;20230;-64
2023/12/26 08:30:44;;;;;;;4.32;0.90;;;10.30;99.90;;;;;;5024473;28;20234;-64
2023/12/26 08:33:12;;;;;;;2.97;0.75;;;10.30;99.90;;;;;;5022785;28;20310;-64
2023/12/26 08:35:40;;;;;;;5.40;1.00;;;10.30;99.90;;;;;;5016907;28;20604;-63
2023/12/26 08:38:08;;;;;;;2.38;0.90;;;10.30;99.90;;;;;;5032513;28;20213;-63
2023/12/26 08:40:36;;;;;;;2.08;0.93;;;10.30;99.90;;;;;;5030375;28;20207;-64
2023/12/26 08:43:04;;;;;;;3.40;1.00;;;10.40;99.90;;;;;;5032419;28;20256;-64
2023/12/26 08:45:34;;;;;;;1.50;0.52;;;10.40;99.90;;;;;;5032393;28;20231;-64
2023/12/26 08:48:02;;;;;;;3.00;0.70;;;10.40;99.90;;;;;;5032361;28;20260;-64
2023/12/26 08:50:30;;;;;;;6.97;0.95;;;10.40;99.90;;;;;;5032197;28;20778;-64
2023/12/26 08:52:57;;;;;;;1.33;0.60;;;10.40;99.90;;;;;;5032239;28;20230;-64
2023/12/26 08:55:25;;;;;;;2.53;0.73;;;10.40;99.90;;;;;;5032100;28;20223;-64
2023/12/26 08:57:53;;;;;;;2.03;0.60;;;10.40;99.90;;;;;;5026751;28;20207;-64
2023/12/26 09:00:21;;;;;;;3.28;0.70;;;10.40;99.90;;;;;;5032572;28;20289;-64
2023/12/26 09:02:51;;;;;;;5.05;0.93;;;10.40;99.90;;;;;;5031939;28;20687;-64
2023/12/26 09:05:33;;;;;;;4.38;0.45;;;10.40;99.90;;;;;;5031851;28;20222;-63
2023/12/26 09:08:01;;;;;;;0.70;0.70;;;10.40;99.90;;;;;;5029747;28;20260;-55
2023/12/26 09:10:29;;;;;;;1.25;0.55;;;10.40;99.90;;;;;;5032240;28;20296;-56
2023/12/26 09:12:56;;;;;;;5.10;1.02;;;10.50;99.90;;;;;;5024134;28;20211;-54
2023/12/26 09:15:24;;;;;;;3.17;0.57;;;10.70;99.90;;;;;;5031883;28;20606;-57
2023/12/26 09:17:53;;;;;;;1.85;0.70;;;10.80;99.90;;;;;;5031735;28;20637;-55
2023/12/26 09:20:21;;;;;;;3.78;0.82;;;10.80;99.90;;;;;;5031843;28;20260;-63
2023/12/26 09:22:50;;;;;;;4.63;0.75;;;10.80;99.90;;;;;;5031861;28;20218;-63
2023/12/26 09:25:18;;;;;;;1.55;0.77;;;10.70;99.90;;;;;;5031813;28;20268;-63
2023/12/26 09:27:46;;;;;;;2.70;0.70;;;10.60;99.90;;;;;;5030642;28;20245;-63
2023/12/26 09:30:15;;;;;;;1.77;0.85;;;10.60;99.90;;;;;;5030187;28;20207;-63
2023/12/26 09:32:43;;;;;;;5.15;0.85;;;10.60;99.90;;;;;;5029812;28;20213;-63
2023/12/26 09:35:12;;;;;;;0.60;0.55;;;10.60;99.90;;;;;;5029555;28;20276;-64
2023/12/26 09:37:40;;;;;;;2.95;0.73;;;10.60;99.90;;;;;;5024047;28;20214;-63
2023/12/26 09:40:09;;;;;;;1.05;0.43;;;10.50;99.90;;;;;;5028980;28;20234;-63
2023/12/26 09:42:37;;;;;;;2.20;0.50;;;10.60;99.90;;;;;;5020726;28;20241;-63
2023/12/26 09:45:06;;;;;;;2.25;0.50;;;10.60;99.90;;;;;;5062593;22;20276;-72
2023/12/26 09:47:34;;;;;;;0.57;0.50;;;10.50;99.90;;;;;;5046422;28;20215;-72
2023/12/26 09:50:02;;;;;;;2.88;0.60;;;10.50;99.90;;;;;;5050865;28;20209;-72
2023/12/26 09:52:32;;;;;;;2.08;0.52;;;10.50;99.90;;;;;;5034660;28;20685;-72
2023/12/26 09:55:00;;;;;;;1.20;0.40;;;10.40;99.90;;;;;;5018429;28;20812;-72
2023/12/26 09:57:28;;;;;;;3.75;0.73;;;10.40;99.90;;;;;;5020148;28;20211;-71
2023/12/26 09:59:56;;;;;;;0.82;0.50;;;10.50;99.90;;;;;;5032722;28;20211;-72
2023/12/26 10:02:24;;;;;;;2.53;0.60;;;10.40;99.90;;;;;;5035427;28;20226;-71
2023/12/26 10:04:52;;;;;;;2.15;0.70;;;10.50;99.90;;;;;;5030895;28;20211;-72
2023/12/26 10:07:20;;;;;;;0.50;0.50;;;10.50;99.90;;;;;;5026543;28;20290;-71
2023/12/26 10:09:49;;;;;;;1.80;0.45;;;10.60;99.90;;;;;;5022032;28;20218;-71
2023/12/26 10:12:18;;;;;;;0.47;0.47;;;10.70;99.90;;;;;;5024030;28;20680;-71
2023/12/26 10:14:46;;;;;;;2.88;0.50;;;10.70;99.90;;;;;;5026888;28;20206;-72
2023/12/26 10:17:16;;;;;;;0.73;0.50;;;10.80;99.90;;;;;;5033678;28;20199;-72
2023/12/26 10:19:46;;;;;;;0.52;0.38;;;10.80;99.90;;;;;;5034081;28;20206;-72
2023/12/26 10:22:14;;;;;;;1.95;0.52;;;10.90;99.90;;;;;;5035158;28;20219;-72
2023/12/26 10:24:42;;;;;;;0.82;0.35;;;10.90;99.90;;;;;;5031843;28;20708;-72
2023/12/26 10:27:11;;;;;;;2.65;0.50;;;10.90;99.90;;;;;;5027590;28;20245;-72
2023/12/26 10:29:39;;;;;;;1.80;0.40;;;10.90;99.90;;;;;;5033864;28;20210;-72
2023/12/26 10:32:07;;;;;;;0.47;0.30;;;10.90;99.90;;;;;;5032371;28;20660;-71
2023/12/26 10:34:35;;;;;;;0.85;0.43;;;10.90;99.90;;;;;;5027575;28;20741;-72
2023/12/26 10:37:03;;;;;;;0.40;0.40;;;10.90;99.90;;;;;;5021412;28;20211;-72
2023/12/26 10:39:31;;;;;;;0.75;0.40;;;10.90;99.90;;;;;;5022366;28;20235;-72
2023/12/26 10:41:59;;;;;;;2.30;0.60;;;10.90;99.90;;;;;;5021830;28;20266;-72
2023/12/26 10:44:28;;;;;;;1.00;0.30;;;10.90;99.90;;;;;;5031938;28;20257;-73
2023/12/26 10:46:56;;;;;;;0.73;0.40;;;10.90;99.90;;;;;;5034004;28;20205;-71
2023/12/26 10:49:24;;;;;;;2.80;0.40;;;10.90;99.90;;;;;;5038760;28;20203;-72
2023/12/26 10:51:53;;;;;;;1.63;0.50;;;11.00;99.90;;;;;;5032361;28;20258;-71
2023/12/26 10:54:22;;;;;;;2.92;0.28;;;11.00;99.90;;;;;;5047260;28;20235;-71
2023/12/26 10:56:51;;;;;;;1.55;0.40;;;11.00;99.90;;;;;;5037468;28;20225;-71
2023/12/26 10:59:19;;;;;;;2.65;0.40;;;11.00;99.90;;;;;;5029791;28;20207;-72
2023/12/26 11:01:47;;;;;;;0.95;0.30;;;11.10;99.90;;;;;;5027470;28;20223;-72
2023/12/26 11:04:15;;;;;;;0.60;0.30;;;11.10;99.90;;;;;;5027965;28;20253;-72
2023/12/26 11:06:43;;;;;;;0.57;0.50;;;11.10;99.90;;;;;;5028855;28;20206;-72
2023/12/26 11:09:10;;;;;;;0.47;0.40;;;11.10;99.90;;;;;;5034509;28;20226;-72
2023/12/26 11:11:37;;;;;;;0.30;0.30;;;11.00;99.90;;;;;;5034300;28;20227;-72
2023/12/26 11:14:05;;;;;;;0.52;0.20;;;11.10;99.90;;;;;;5034316;28;20208;-72
2023/12/26 11:16:31;;;;;;;0.75;0.20;;;11.00;99.90;;;;;;5035914;28;20202;-72
2023/12/26 11:19:00;;;;;;;0.20;0.20;;;11.00;99.90;;;;;;5027022;28;20239;-72
2023/12/26 11:21:28;;;;;;;0.73;0.30;;;11.00;99.90;;;;;;5025112;28;20220;-71
2023/12/26 11:23:55;;;;;;;1.17;0.40;;;11.00;99.90;;;;;;5031183;28;20218;-72
2023/12/26 11:26:22;;;;;;;0.35;0.30;;;11.00;99.90;;;;;;5032432;28;20207;-72
2023/12/26 11:28:49;;;;;;;1.77;0.30;;;11.00;99.90;;;;;;5029292;28;20217;-71
2023/12/26 11:31:16;;;;;;;1.13;0.30;;;11.10;99.90;;;;;;5028662;28;20226;-72
2023/12/26 11:33:43;;;;;;;0.50;0.20;;;11.10;99.90;;;;;;5032065;28;20338;-72
2023/12/26 11:36:13;;;;;;;0.30;0.30;;;11.10;99.90;;;;;;5030303;28;20210;-72
2023/12/26 11:38:39;;;;;;;0.85;0.40;;;11.10;99.90;;;;;;5040162;28;20652;-72
2023/12/26 11:41:06;;;;;;;0.52;0.30;;;11.10;99.90;;;;;;5037458;28;20269;-72
2023/12/26 11:43:34;;;;;;;0.77;0.40;;;11.30;99.90;;;;;;5030727;28;20330;-72
2023/12/26 11:46:01;;;;;;;0.85;0.35;;;11.20;99.90;;;;;;5029310;28;20242;-72
2023/12/26 11:48:28;;;;;;;0.30;0.30;;;11.30;99.90;;;;;;5039729;28;20209;-72
2023/12/26 11:50:56;;;;;;;1.55;0.40;;;11.30;99.90;;;;;;5027126;28;20223;-72
2023/12/26 11:53:24;;;;;;;1.75;0.40;;;11.50;99.90;;;;;;5034577;28;20317;-72
2023/12/26 11:55:51;;;;;;;0.32;0.30;;;11.50;99.90;;;;;;5029282;28;20213;-72
2023/12/26 11:58:19;;;;;;;0.40;0.32;;;11.50;99.90;;;;;;5029196;28;20208;-72
2023/12/26 12:00:46;;;;;;;0.38;0.30;;;11.50;99.90;;;;;;5030167;28;20707;-72
2023/12/26 12:03:13;;;;;;;0.20;0.20;;;11.40;99.90;;;;;;5036814;28;20206;-72
2023/12/26 12:05:41;;;;;;;0.40;0.20;;;11.40;99.90;;;;;;5032576;28;20226;-72
2023/12/26 12:08:11;;;;;;;0.35;0.30;;;11.30;99.90;;;;;;5023537;28;20261;-72
2023/12/26 12:10:59;;;;;;;1.35;0.20;;;11.30;99.90;;;;;;5025663;28;20520;-72
2023/12/26 12:13:25;;;;;;;0.10;0.10;;;11.20;99.90;;;;;;5039390;28;20268;-72
2023/12/26 12:15:52;;;;;;;0.20;0.20;;;11.20;99.90;;;;;;5038104;28;20253;-72
2023/12/26 12:18:21;;;;;;;0.40;0.32;;;11.20;99.90;;;;;;5039431;28;20640;-72
2023/12/26 12:20:49;;;;;;;0.47;0.20;;;11.20;99.90;;;;;;5037865;28;20674;-72
2023/12/26 12:23:16;;;;;;;1.33;0.20;;;11.20;99.90;;;;;;5031413;28;20199;-72
2023/12/26 12:25:45;;;;;;;0.20;0.20;;;11.30;99.90;;;;;;5031726;28;20627;-72
2023/12/26 12:28:12;;;;;;;0.30;0.28;;;11.30;99.90;;;;;;5028139;28;20264;-72
2023/12/26 12:30:38;;;;;;;0.22;0.22;;;11.30;99.90;;;;;;5035896;28;20703;-72
2023/12/26 12:33:19;;;;;;;0.22;0.20;;;11.20;99.90;;;;;;5030909;28;20219;-72
2023/12/26 12:35:47;;;;;;;0.20;0.20;;;11.20;99.90;;;;;;5032006;28;20699;-72
2023/12/26 12:38:14;;;;;;;0.20;0.20;;;11.20;99.90;;;;;;5029292;28;20205;-72
2023/12/26 12:40:44;;;;;;;1.27;0.30;;;11.20;99.90;;;;;;5042181;28;20249;-72
2023/12/26 12:43:11;;;;;;;0.63;0.20;;;11.20;99.90;;;;;;5030993;28;20231;-72
2023/12/26 12:45:38;;;;;;;0.32;0.20;;;11.20;99.90;;;;;;5029024;28;20247;-72
2023/12/26 12:48:06;;;;;;;1.63;0.30;;;11.20;99.90;;;;;;5028889;28;20226;-72
2023/12/26 12:50:33;;;;;;;0.20;0.20;;;11.20;99.90;;;;;;5039454;28;20206;-72
2023/12/26 12:53:00;;;;;;;0.10;0.10;;;11.10;99.90;;;;;;5036609;28;20226;-72